Sitka, AK

12:10 AM AKDT on August 01, 2014 (GMT -0800)
Sitka Rocky Gutierrez (PASI) Elev 20 ft | 57.05 °N, 135.36 °W | Change Station

Current weather conditions updated 17 minutes ago

Scattered Clouds
Scattered Clouds
58 °F
Feels Like 58 °F
N
4
Wind Variable Wind from NW

Today is forecast to be nearly the same temperature as yesterday.

Today
High -- | Low -- °F
--% Chance of Precip.
Yesterday
High -- | Low -- °F
Precip. -- in
5:00 AM 9:13 PM
Waxing Crescent, 24% visible
Pressure 30.27 in
Visibility 10.0 miles
Clouds Scattered Clouds 10000 ft
Dew Point 53 °F
Humidity 84%
Rainfall 0.00 in
Snow Depth Not available.
UV 0 out of 12
Pollen Not available.
Air Quality Not available.
Flu Activity Not available.
METAR PASI 010753Z 32003KT 10SM SCT100 14/12 A3026 RMK AO2 SLP248 T01440117

More Conditions Fewer Conditions

Pressure 30.27 in
Visibility 10.0 miles
Clouds Scattered Clouds 10000 ft
Dew Point 53 °F
Humidity 84%
Rainfall 0.00 in
Snow Depth Not available.
UV 0 out of 12
Pollen Not available.
Air Quality Not available.
Flu Activity Not available.
METAR PASI 010753Z 32003KT 10SM SCT100 14/12 A3026 RMK AO2 SLP248 T01440117

More Conditions Fewer Conditions

10-Day Weather Forecast

Almanac

Astronomy

Aug. 01, 2014 Rise Set
Actual Time 5:00 AM AKDT 9:13 PM AKDT
Civil Twilight 4:09 AM AKDT 10:04 PM AKDT
Nautical Twilight 2:49 AM AKDT 11:21 PM AKDT
Astronomical Twilight 1:40 AM AKDT 12:35 AM AKDT
Moon 11:49 AM AKDT 10:40 PM AKDT
Length of Visible Light 17h 54m
Length of Day
16h 13m
Tomorrow will be 4m 8s shorter.
Waxing Crescent, 24% of the Moon is Illuminated
Today
Waxing Crescent
Aug 3
First Quarter
Aug 10
Full
Aug 17
Last Quarter
Aug 25
New

Community

WunderPhotos

Upload Photos

1,739,522 photos uploaded!

Nearby

Snow Depth

Station Depth Elevation
Long Lake 0 in 820 ft
Upper Tsaina River 0 in 1750 ft
Moraine 0 in 2100 ft
Grandview 0 in 1100 ft
Grouse Creek Divide 0 in 700 ft

Earthquake Activity

City Distance Mag. Time & Date
No recent earthquake activity has been reported nearby.
Minimum magnitude displayed is 2.5.

Coastal Water Temperatures

Place Temperature
No Stations Reporting

Nearby Weather Stations

Station Location Temp. Dew Point Humidity Wind Precip. Elev Updated Type
HADS TAKATZ C NR BARANOF AK , Sitka, AK 50 °F - - North  at  - 0.00 in / hr 227 ft 11:00 PM AKDT MADIS

Show More Stations Show Fewer Stations